Time;durP1;ratioP1;P1;durP2;ratioP2;P2;SDS_P1;SDS_P2;PMS_P1;PMS_P2;Temp;Humidity;BMP_temperature;BMP_pressure;BME280_temperature;BME280_humidity;BME280_pressure;Samples;Min_cycle;Max_cycle;Signal;HPM_P1;HPM_P2
2024/01/10 00:00:09;;;;;;;53.67;25.58;;;-4.10;91.50;;;;;;6211027;23;20009;-70
2024/01/10 00:02:54;;;;;;;49.10;25.55;;;-4.10;91.50;;;;;;6212551;23;20013;-71
2024/01/10 00:05:40;;;;;;;55.40;25.67;;;-4.10;91.50;;;;;;6212989;23;20024;-69
2024/01/10 00:08:26;;;;;;;52.35;26.65;;;-4.20;91.50;;;;;;6210087;23;20214;-70
2024/01/10 00:11:12;;;;;;;48.50;26.27;;;-4.20;91.50;;;;;;6212926;23;20009;-70
2024/01/10 00:13:59;;;;;;;47.28;24.98;;;-4.20;91.60;;;;;;6210132;23;20005;-70
2024/01/10 00:16:45;;;;;;;50.13;25.95;;;-4.20;91.60;;;;;;6210565;23;20013;-70
2024/01/10 00:19:31;;;;;;;47.85;24.90;;;-4.20;91.60;;;;;;6210195;23;20016;-70
2024/01/10 00:22:17;;;;;;;49.00;24.95;;;-4.20;91.60;;;;;;6211994;23;20017;-71
2024/01/10 00:25:04;;;;;;;55.45;26.13;;;-4.20;91.60;;;;;;6212499;23;20425;-70
2024/01/10 00:27:50;;;;;;;51.15;24.88;;;-4.20;91.70;;;;;;6212233;23;20009;-70
2024/01/10 00:30:36;;;;;;;51.38;24.35;;;-4.20;91.70;;;;;;6212718;23;20005;-70
2024/01/10 00:33:22;;;;;;;46.55;23.15;;;-4.30;91.80;;;;;;6209353;23;20341;-70
2024/01/10 00:36:08;;;;;;;52.30;25.58;;;-4.30;91.70;;;;;;6212688;23;20029;-70
2024/01/10 00:38:53;;;;;;;59.25;29.17;;;-4.20;91.70;;;;;;6188813;23;20007;-69
2024/01/10 00:41:39;;;;;;;51.40;25.83;;;-4.20;91.70;;;;;;6211878;23;20016;-69
2024/01/10 00:44:25;;;;;;;51.67;24.55;;;-4.20;91.80;;;;;;6211561;23;20036;-69
2024/01/10 00:47:11;;;;;;;50.40;24.48;;;-4.20;91.80;;;;;;6190427;23;20429;-70
2024/01/10 00:49:57;;;;;;;48.17;25.20;;;-4.20;92.00;;;;;;6209254;23;20390;-70
2024/01/10 00:52:47;;;;;;;58.40;26.70;;;-4.20;91.80;;;;;;6211099;23;20016;-70
2024/01/10 00:55:32;;;;;;;54.78;25.75;;;-4.20;91.80;;;;;;6211785;23;20009;-70
2024/01/10 00:58:18;;;;;;;46.65;25.10;;;-4.30;91.80;;;;;;6208932;23;20039;-69
2024/01/10 01:01:04;;;;;;;55.63;26.40;;;-4.20;91.80;;;;;;6211568;23;20009;-71
2024/01/10 01:03:50;;;;;;;50.10;24.25;;;-4.10;91.90;;;;;;6211888;23;20458;-70
2024/01/10 01:06:36;;;;;;;58.53;27.00;;;-4.10;91.90;;;;;;6211679;23;20032;-70
2024/01/10 01:09:22;;;;;;;51.03;25.13;;;-4.10;91.90;;;;;;6209539;23;20005;-70
2024/01/10 01:12:08;;;;;;;51.72;27.50;;;-4.10;91.90;;;;;;6212020;23;20441;-70
2024/01/10 01:14:55;;;;;;;55.10;26.05;;;-4.10;91.90;;;;;;6212334;23;20127;-72
2024/01/10 01:17:40;;;;;;;54.83;26.02;;;-4.10;91.90;;;;;;6207638;23;20016;-70
2024/01/10 01:20:26;;;;;;;53.03;26.25;;;-4.10;91.90;;;;;;6190474;23;20175;-70
2024/01/10 01:23:12;;;;;;;55.38;26.80;;;-4.10;91.90;;;;;;6211631;23;20415;-70
2024/01/10 01:25:59;;;;;;;52.88;26.65;;;-4.00;91.90;;;;;;6212265;23;20393;-70
2024/01/10 01:28:45;;;;;;;53.08;25.70;;;-4.00;91.90;;;;;;6187349;23;20092;-71
2024/01/10 01:31:31;;;;;;;55.03;27.92;;;-4.00;91.90;;;;;;6209371;23;20012;-70
2024/01/10 01:34:17;;;;;;;59.83;27.98;;;-4.00;91.90;;;;;;6210466;23;20012;-71
2024/01/10 01:37:04;;;;;;;55.67;27.42;;;-4.10;91.80;;;;;;6186490;23;20016;-72
2024/01/10 01:39:49;;;;;;;51.25;25.58;;;-4.10;91.80;;;;;;6211221;23;20009;-70
2024/01/10 01:42:35;;;;;;;53.40;25.20;;;-4.10;91.80;;;;;;6209123;23;20066;-71
2024/01/10 01:45:21;;;;;;;55.38;25.95;;;-4.10;91.80;;;;;;6212144;23;20090;-63
2024/01/10 01:48:07;;;;;;;57.92;26.70;;;-4.00;91.90;;;;;;6210789;23;20004;-63
2024/01/10 01:51:06;;;;;;;55.70;26.65;;;-4.00;91.90;;;;;;6211532;23;20452;-62
2024/01/10 01:53:53;;;;;;;58.90;28.50;;;-4.10;91.80;;;;;;6211336;23;20009;-62
2024/01/10 01:56:40;;;;;;;55.38;27.27;;;-4.00;91.80;;;;;;6190305;23;20013;-62
2024/01/10 01:59:27;;;;;;;54.13;27.10;;;-4.00;91.80;;;;;;6211416;23;20031;-62
2024/01/10 02:02:14;;;;;;;59.15;27.05;;;-4.00;91.80;;;;;;6209320;23;20016;-62
2024/01/10 02:05:00;;;;;;;53.75;28.20;;;-4.10;91.80;;;;;;6211948;23;20391;-62
2024/01/10 02:07:46;;;;;;;54.90;27.23;;;-4.10;91.70;;;;;;6211415;23;20064;-62
2024/01/10 02:10:34;;;;;;;54.35;27.00;;;-4.10;91.80;;;;;;6211320;23;20024;-62
2024/01/10 02:13:20;;;;;;;54.65;26.50;;;-4.10;91.80;;;;;;6211000;23;20012;-62
2024/01/10 02:16:06;;;;;;;56.88;26.83;;;-4.10;91.80;;;;;;6210620;23;20009;-62
2024/01/10 02:18:52;;;;;;;57.45;27.23;;;-4.10;91.80;;;;;;6210513;23;20015;-62
2024/01/10 02:21:38;;;;;;;55.17;27.27;;;-4.10;91.80;;;;;;6211154;23;20051;-61
2024/01/10 02:24:24;;;;;;;56.63;26.88;;;-4.10;91.80;;;;;;6220724;23;20032;-60
2024/01/10 02:27:11;;;;;;;52.78;25.67;;;-4.20;91.80;;;;;;6218310;23;20013;-62
2024/01/10 02:29:58;;;;;;;51.13;26.15;;;-4.10;91.80;;;;;;6208961;23;20059;-62
2024/01/10 02:32:44;;;;;;;52.03;24.23;;;-4.10;91.80;;;;;;6189696;23;20005;-62
2024/01/10 02:35:32;;;;;;;55.38;26.77;;;-4.10;91.80;;;;;;6211951;23;20055;-62
2024/01/10 02:38:21;;;;;;;61.00;25.15;;;-4.10;91.80;;;;;;6211439;23;20004;-62
2024/01/10 02:41:06;;;;;;;53.42;25.25;;;-4.10;91.80;;;;;;6211637;23;20445;-62
2024/01/10 02:43:52;;;;;;;57.63;27.75;;;-4.10;91.80;;;;;;6212322;23;20188;-63
2024/01/10 02:46:38;;;;;;;53.28;26.20;;;-4.20;91.80;;;;;;6210465;23;20338;-62
2024/01/10 02:49:24;;;;;;;51.63;26.35;;;-4.10;91.80;;;;;;6212786;23;20011;-62
2024/01/10 02:52:10;;;;;;;51.90;24.90;;;-4.20;91.70;;;;;;6213658;23;20088;-62
2024/01/10 02:54:56;;;;;;;51.70;26.17;;;-4.10;91.80;;;;;;6189326;23;20027;-62
2024/01/10 02:57:42;;;;;;;54.25;26.77;;;-4.20;91.70;;;;;;6189054;23;20005;-61
2024/01/10 03:00:28;;;;;;;54.53;25.45;;;-4.10;91.80;;;;;;6190954;23;20004;-61
2024/01/10 03:03:14;;;;;;;48.97;26.42;;;-4.10;91.80;;;;;;6212402;23;20023;-62
2024/01/10 03:06:00;;;;;;;54.92;25.67;;;-4.10;91.70;;;;;;6210448;23;20008;-62
2024/01/10 03:08:46;;;;;;;53.55;26.48;;;-4.10;91.70;;;;;;6211886;23;20026;-61
2024/01/10 03:11:33;;;;;;;57.33;24.75;;;-4.10;91.70;;;;;;6210489;23;20020;-62
2024/01/10 03:14:19;;;;;;;53.88;25.10;;;-4.10;91.70;;;;;;6210396;23;20311;-61
2024/01/10 03:17:05;;;;;;;46.90;25.27;;;-4.10;91.70;;;;;;6210477;23;20341;-61
2024/01/10 03:19:52;;;;;;;51.65;25.88;;;-4.10;91.70;;;;;;6212459;23;20005;-62
2024/01/10 03:22:38;;;;;;;55.20;27.52;;;-4.10;91.70;;;;;;6211887;23;20024;-61
2024/01/10 03:25:23;;;;;;;57.88;26.63;;;-4.10;91.70;;;;;;6213004;23;20004;-62
2024/01/10 03:28:09;;;;;;;46.47;25.05;;;-4.20;91.60;;;;;;6212993;23;20059;-61
2024/01/10 03:30:55;;;;;;;56.13;27.80;;;-4.20;91.70;;;;;;6212935;23;20123;-62
2024/01/10 03:33:41;;;;;;;51.88;25.05;;;-4.20;91.60;;;;;;6209208;23;20016;-62
2024/01/10 03:36:27;;;;;;;53.20;25.88;;;-4.20;91.70;;;;;;6212096;23;20008;-62
2024/01/10 03:39:13;;;;;;;54.88;25.70;;;-4.20;91.70;;;;;;6210566;23;20004;-61
2024/01/10 03:41:59;;;;;;;50.05;25.58;;;-4.20;91.60;;;;;;6212292;23;20055;-61
2024/01/10 03:44:45;;;;;;;55.05;25.38;;;-4.20;91.60;;;;;;6212449;23;20008;-61
2024/01/10 03:47:31;;;;;;;48.55;24.83;;;-4.20;91.60;;;;;;6213185;23;20019;-62
2024/01/10 03:50:19;;;;;;;50.80;27.40;;;-4.30;91.60;;;;;;6212646;23;20001;-61
2024/01/10 03:53:05;;;;;;;57.30;26.60;;;-4.40;91.60;;;;;;6212199;23;20008;-62
2024/01/10 03:55:50;;;;;;;57.72;27.10;;;-4.40;91.50;;;;;;6208363;23;20008;-62
2024/01/10 03:58:36;;;;;;;53.65;26.75;;;-4.40;91.60;;;;;;6210257;23;20017;-62
2024/01/10 04:01:23;;;;;;;55.33;28.45;;;-4.40;91.60;;;;;;6212329;23;20005;-62
2024/01/10 04:04:09;;;;;;;52.83;26.58;;;-4.40;91.60;;;;;;6211121;23;20020;-61
2024/01/10 04:06:55;;;;;;;56.78;27.85;;;-4.40;91.60;;;;;;6212495;23;20086;-61
2024/01/10 04:09:42;;;;;;;58.17;28.25;;;-4.30;91.60;;;;;;6212762;23;20009;-62
2024/01/10 04:12:27;;;;;;;56.35;26.80;;;-4.30;91.60;;;;;;6211147;23;20464;-63
2024/01/10 04:15:13;;;;;;;50.85;26.33;;;-4.30;91.60;;;;;;6209454;23;20330;-62
2024/01/10 04:17:59;;;;;;;54.55;26.15;;;-4.30;91.60;;;;;;6212119;23;20004;-62
2024/01/10 04:20:46;;;;;;;52.22;26.65;;;-4.30;91.60;;;;;;6212374;23;20066;-62
2024/01/10 04:23:33;;;;;;;50.08;25.02;;;-4.20;91.60;;;;;;6212752;23;20019;-62
2024/01/10 04:26:19;;;;;;;53.47;26.52;;;-4.20;91.70;;;;;;6189398;23;20001;-61
2024/01/10 04:29:05;;;;;;;51.15;24.70;;;-4.20;91.60;;;;;;6208746;23;20012;-62
2024/01/10 04:31:51;;;;;;;52.67;26.23;;;-4.20;91.60;;;;;;6209778;23;20016;-62
2024/01/10 04:34:37;;;;;;;51.10;25.92;;;-4.20;91.60;;;;;;6210879;23;20027;-62
2024/01/10 04:37:23;;;;;;;54.10;25.50;;;-4.20;91.60;;;;;;6211248;23;20012;-62
2024/01/10 04:40:09;;;;;;;48.70;24.98;;;-4.10;91.60;;;;;;6212373;23;20012;-62
2024/01/10 04:42:55;;;;;;;53.50;24.80;;;-4.10;91.60;;;;;;6209129;23;20020;-62
2024/01/10 04:45:41;;;;;;;56.28;28.38;;;-4.10;91.60;;;;;;6188604;23;20008;-62
2024/01/10 04:48:27;;;;;;;49.85;25.42;;;-4.10;91.60;;;;;;6211067;23;20015;-62
2024/01/10 04:51:14;;;;;;;55.08;25.90;;;-4.20;91.60;;;;;;6190874;23;20032;-62
2024/01/10 04:54:00;;;;;;;49.72;26.08;;;-4.20;91.60;;;;;;6211492;23;20036;-62
2024/01/10 04:56:46;;;;;;;51.15;25.08;;;-4.10;91.60;;;;;;6209085;23;20015;-62
2024/01/10 04:59:33;;;;;;;53.17;27.85;;;-4.10;91.60;;;;;;6210982;23;20004;-63
2024/01/10 05:02:18;;;;;;;54.63;26.23;;;-4.10;91.60;;;;;;6210394;23;20019;-62
2024/01/10 05:05:05;;;;;;;56.70;29.48;;;-4.10;91.60;;;;;;6209578;23;20016;-62
2024/01/10 05:07:51;;;;;;;58.13;26.55;;;-4.20;91.50;;;;;;6212192;23;20341;-63
2024/01/10 05:10:37;;;;;;;58.45;26.33;;;-4.20;91.50;;;;;;6208694;23;20028;-62
2024/01/10 05:13:23;;;;;;;55.15;27.58;;;-4.20;91.60;;;;;;6208745;23;20009;-62
2024/01/10 05:16:09;;;;;;;49.90;26.00;;;-4.20;91.60;;;;;;6211706;23;20000;-62
2024/01/10 05:18:55;;;;;;;56.67;25.15;;;-4.20;91.60;;;;;;6211990;23;20370;-62
2024/01/10 05:21:41;;;;;;;52.80;25.98;;;-4.20;91.60;;;;;;6207957;23;20341;-62
2024/01/10 05:24:27;;;;;;;54.05;28.83;;;-4.20;91.60;;;;;;6208608;23;20087;-62
2024/01/10 05:27:13;;;;;;;52.08;27.63;;;-4.20;91.60;;;;;;6188570;23;20004;-63
2024/01/10 05:29:59;;;;;;;48.75;26.77;;;-4.20;91.60;;;;;;6210333;23;20009;-62
2024/01/10 05:32:45;;;;;;;53.72;27.23;;;-4.20;91.60;;;;;;6221007;23;20000;-62
2024/01/10 05:35:31;;;;;;;50.88;24.92;;;-4.20;91.50;;;;;;6222228;23;20453;-62
2024/01/10 05:38:17;;;;;;;53.80;26.38;;;-4.30;91.50;;;;;;6208897;23;20492;-62
2024/01/10 05:41:03;;;;;;;54.90;27.05;;;-4.30;91.50;;;;;;6211783;23;20016;-62
2024/01/10 05:43:49;;;;;;;52.47;27.70;;;-4.30;91.50;;;;;;6208746;23;20338;-72
2024/01/10 05:46:35;;;;;;;58.08;29.35;;;-4.30;91.50;;;;;;6211545;23;20433;-71
2024/01/10 05:49:22;;;;;;;61.03;28.95;;;-4.40;91.50;;;;;;6207882;23;20618;-71
2024/01/10 05:52:08;;;;;;;59.80;27.83;;;-4.40;91.50;;;;;;6210671;23;20337;-71
2024/01/10 05:54:54;;;;;;;59.28;27.55;;;-4.40;91.50;;;;;;6211749;23;20484;-71
2024/01/10 05:57:40;;;;;;;61.70;27.95;;;-4.40;91.50;;;;;;6210844;23;20009;-71
2024/01/10 06:00:28;;;;;;;61.53;30.02;;;-4.40;91.50;;;;;;6211878;23;20311;-73
2024/01/10 06:03:14;;;;;;;56.78;27.60;;;-4.40;91.40;;;;;;6209946;23;20393;-73
2024/01/10 06:06:00;;;;;;;56.38;27.45;;;-4.40;91.50;;;;;;6211234;23;20019;-74
2024/01/10 06:08:45;;;;;;;61.15;29.17;;;-4.40;91.50;;;;;;6208981;23;20311;-73
2024/01/10 06:11:31;;;;;;;57.47;26.90;;;-4.40;91.50;;;;;;6211563;23;20008;-72
2024/01/10 06:14:17;;;;;;;60.42;28.48;;;-4.40;91.50;;;;;;6207832;23;20005;-71
2024/01/10 06:17:03;;;;;;;54.35;28.35;;;-4.40;91.50;;;;;;6212163;23;20445;-70
2024/01/10 06:19:50;;;;;;;56.75;25.55;;;-4.40;91.60;;;;;;6210679;23;20005;-70
2024/01/10 06:22:36;;;;;;;54.30;28.67;;;-4.30;91.60;;;;;;6211254;23;20020;-71
2024/01/10 06:25:23;;;;;;;62.25;28.60;;;-4.30;91.60;;;;;;6210229;23;20024;-71
2024/01/10 06:28:09;;;;;;;54.75;26.77;;;-4.30;91.60;;;;;;6212554;23;20016;-70
2024/01/10 06:30:54;;;;;;;57.85;29.23;;;-4.30;91.60;;;;;;6210829;23;20009;-71
2024/01/10 06:33:40;;;;;;;50.15;25.73;;;-4.30;91.60;;;;;;6188707;23;20000;-71
2024/01/10 06:36:26;;;;;;;57.63;28.20;;;-4.20;91.70;;;;;;6212308;23;20036;-69
2024/01/10 06:39:12;;;;;;;65.30;30.83;;;-4.20;91.60;;;;;;6213435;23;20011;-71
2024/01/10 06:41:58;;;;;;;60.05;29.85;;;-4.20;91.60;;;;;;6192314;23;20013;-70
2024/01/10 06:44:45;;;;;;;57.65;27.95;;;-4.30;91.60;;;;;;6210693;23;20012;-70
2024/01/10 06:47:31;;;;;;;56.40;28.60;;;-4.30;91.60;;;;;;6211307;23;20040;-71
2024/01/10 06:50:19;;;;;;;55.28;25.48;;;-4.30;91.50;;;;;;6209480;23;20066;-71
2024/01/10 06:53:05;;;;;;;47.53;26.30;;;-4.40;91.50;;;;;;6212546;23;20005;-71
2024/01/10 06:55:51;;;;;;;49.58;25.23;;;-4.40;91.50;;;;;;6212472;23;20020;-71
2024/01/10 06:58:39;;;;;;;58.58;28.73;;;-4.40;91.40;;;;;;6213432;23;20016;-71
2024/01/10 07:01:25;;;;;;;48.58;25.52;;;-4.40;91.40;;;;;;6212576;23;20083;-71
2024/01/10 07:04:11;;;;;;;56.30;26.00;;;-4.50;91.40;;;;;;6212715;23;20130;-72
2024/01/10 07:06:57;;;;;;;58.40;28.02;;;-4.40;91.50;;;;;;6213233;23;20083;-72
2024/01/10 07:09:43;;;;;;;55.08;28.10;;;-4.40;91.50;;;;;;6212558;23;20001;-61
2024/01/10 07:12:28;;;;;;;57.90;27.52;;;-4.40;91.50;;;;;;6212326;23;20015;-61
2024/01/10 07:15:14;;;;;;;55.75;26.98;;;-4.40;91.50;;;;;;6212905;23;20008;-60
2024/01/10 07:18:00;;;;;;;54.88;27.90;;;-4.40;91.60;;;;;;6212664;23;20005;-60
2024/01/10 07:20:47;;;;;;;51.30;26.75;;;-4.30;91.60;;;;;;6210188;23;20041;-60
2024/01/10 07:23:33;;;;;;;57.33;28.40;;;-4.30;91.60;;;;;;6208805;23;20445;-60
2024/01/10 07:26:19;;;;;;;54.25;28.05;;;-4.20;91.60;;;;;;6212291;23;20051;-60
2024/01/10 07:29:08;;;;;;;57.58;28.17;;;-4.20;91.60;;;;;;6210935;23;20007;-59
2024/01/10 07:31:54;;;;;;;59.47;29.40;;;-4.20;91.80;;;;;;6211995;23;20008;-60
2024/01/10 07:34:40;;;;;;;71.90;31.50;;;-4.20;91.60;;;;;;6210756;23;20083;-59
2024/01/10 07:37:26;;;;;;;54.33;27.02;;;-4.20;91.70;;;;;;6212742;23;20008;-60
2024/01/10 07:40:13;;;;;;;56.90;26.98;;;-4.20;91.60;;;;;;6210277;23;20000;-60
2024/01/10 07:42:59;;;;;;;58.25;28.75;;;-4.20;91.60;;;;;;6211628;23;20016;-61
2024/01/10 07:45:45;;;;;;;63.13;29.50;;;-4.20;91.60;;;;;;6187602;23;20004;-62
2024/01/10 07:48:31;;;;;;;55.60;27.33;;;-4.20;91.70;;;;;;6209924;23;20267;-62
2024/01/10 07:51:17;;;;;;;58.67;29.92;;;-4.10;91.90;;;;;;6210172;23;20155;-62
2024/01/10 07:54:03;;;;;;;60.53;30.35;;;-4.10;92.00;;;;;;6212641;23;20005;-70
2024/01/10 07:56:48;;;;;;;57.22;30.45;;;-4.10;92.10;;;;;;6210496;23;20000;-70
2024/01/10 07:59:34;;;;;;;65.28;32.28;;;-4.00;92.20;;;;;;6212539;23;20391;-70
2024/01/10 08:02:20;;;;;;;57.63;30.95;;;-4.10;92.30;;;;;;6210013;23;20326;-70
2024/01/10 08:05:10;;;;;;;61.70;31.20;;;-4.10;92.30;;;;;;6210654;23;20017;-70
2024/01/10 08:07:56;;;;;;;61.00;30.33;;;-4.10;92.30;;;;;;6209067;23;20428;-68
2024/01/10 08:10:42;;;;;;;64.60;29.75;;;-4.00;92.40;;;;;;6209509;23;20098;-70
2024/01/10 08:13:28;;;;;;;60.95;30.23;;;-4.00;92.40;;;;;;6189291;23;20009;-71
2024/01/10 08:16:14;;;;;;;59.72;29.88;;;-4.00;92.40;;;;;;6209361;23;20008;-71
2024/01/10 08:19:00;;;;;;;64.03;31.27;;;-3.90;92.50;;;;;;6212752;23;20012;-71
2024/01/10 08:21:46;;;;;;;59.40;30.05;;;-3.90;92.50;;;;;;6210105;23;20011;-71
2024/01/10 08:24:32;;;;;;;58.30;29.90;;;-3.90;92.50;;;;;;6212626;23;20008;-71
2024/01/10 08:27:18;;;;;;;60.97;33.67;;;-3.90;92.40;;;;;;6212477;23;20004;-71
2024/01/10 08:30:05;;;;;;;67.07;32.45;;;-3.80;92.40;;;;;;6212532;23;20004;-71
2024/01/10 08:32:52;;;;;;;56.25;31.17;;;-3.90;92.30;;;;;;6211068;23;20096;-71
2024/01/10 08:35:38;;;;;;;60.58;29.60;;;-3.90;92.20;;;;;;6209361;23;20044;-71
2024/01/10 08:38:24;;;;;;;59.10;30.08;;;-3.80;92.20;;;;;;6212892;23;20091;-70
2024/01/10 08:41:11;;;;;;;62.75;30.10;;;-3.80;92.20;;;;;;6221734;23;20004;-70
2024/01/10 08:43:57;;;;;;;69.57;31.48;;;-3.80;92.10;;;;;;6224039;23;20012;-70
2024/01/10 08:46:43;;;;;;;63.42;30.73;;;-3.70;92.10;;;;;;6218226;23;20004;-70
2024/01/10 08:49:29;;;;;;;56.60;29.98;;;-3.70;92.00;;;;;;6218154;23;20358;-70
2024/01/10 08:52:15;;;;;;;59.47;29.08;;;-3.70;92.00;;;;;;6210531;23;20009;-62
2024/01/10 08:55:01;;;;;;;62.35;29.98;;;-3.70;92.00;;;;;;6211887;23;20011;-62
2024/01/10 08:57:47;;;;;;;59.75;29.85;;;-3.70;91.90;;;;;;6212767;23;20001;-62
2024/01/10 09:00:33;;;;;;;66.63;33.75;;;-3.70;91.90;;;;;;6210449;23;20015;-60
2024/01/10 09:03:19;;;;;;;69.63;31.45;;;-3.70;91.80;;;;;;6211041;23;20392;-60
2024/01/10 09:06:07;;;;;;;61.53;30.30;;;-3.70;91.80;;;;;;6210909;23;20323;-60
2024/01/10 09:08:53;;;;;;;63.47;30.80;;;-3.70;91.80;;;;;;6213361;23;20011;-59
2024/01/10 09:11:39;;;;;;;63.95;30.48;;;-3.70;91.70;;;;;;6211377;23;20035;-60
2024/01/10 09:14:25;;;;;;;62.35;31.30;;;-3.60;91.70;;;;;;6209127;23;20013;-60
2024/01/10 09:17:11;;;;;;;59.70;29.50;;;-3.60;91.70;;;;;;6208807;23;20024;-61
2024/01/10 09:19:57;;;;;;;68.78;29.85;;;-3.50;91.70;;;;;;6188367;23;20004;-60
2024/01/10 09:22:43;;;;;;;66.38;29.23;;;-3.50;91.60;;;;;;6211042;23;20016;-60
2024/01/10 09:25:29;;;;;;;71.47;35.38;;;-3.50;91.60;;;;;;6210175;23;20012;-60
2024/01/10 09:28:15;;;;;;;63.00;28.33;;;-3.50;91.60;;;;;;6209176;23;20009;-60
2024/01/10 09:31:01;;;;;;;54.25;28.00;;;-3.40;91.50;;;;;;6211887;23;20004;-60
2024/01/10 09:33:47;;;;;;;53.30;28.13;;;-3.40;91.50;;;;;;6210418;23;20466;-60
2024/01/10 09:36:33;;;;;;;58.35;27.63;;;-3.30;91.40;;;;;;6208006;23;20000;-60
2024/01/10 09:39:19;;;;;;;53.67;26.50;;;-3.20;91.50;;;;;;6187221;23;20009;-60
2024/01/10 09:42:06;;;;;;;54.38;27.55;;;-3.10;91.50;;;;;;6208097;23;20028;-61
2024/01/10 09:44:52;;;;;;;52.33;27.30;;;-3.10;91.40;;;;;;6210715;23;20070;-60
2024/01/10 09:47:42;;;;;;;54.28;27.38;;;-3.00;91.40;;;;;;6210900;23;20338;-60
2024/01/10 09:50:28;;;;;;;50.15;25.35;;;-3.00;91.30;;;;;;6210169;23;20036;-60
2024/01/10 09:53:23;;;;;;;49.08;24.60;;;-2.90;91.30;;;;;;6211780;23;20000;-60
2024/01/10 09:56:10;;;;;;;49.42;25.50;;;-2.80;91.30;;;;;;6209971;23;20045;-60
2024/01/10 09:58:58;;;;;;;48.95;24.15;;;-2.80;91.20;;;;;;6209303;23;20001;-60
2024/01/10 10:01:44;;;;;;;47.42;23.55;;;-2.70;91.20;;;;;;6211246;23;20004;-63
2024/01/10 10:04:30;;;;;;;50.63;24.67;;;-2.70;91.10;;;;;;6209221;23;20025;-60
2024/01/10 10:07:16;;;;;;;50.55;26.42;;;-2.60;91.10;;;;;;6211197;23;20004;-61
2024/01/10 10:10:03;;;;;;;50.67;26.65;;;-2.60;91.00;;;;;;6207840;23;20051;-60
2024/01/10 10:12:54;;;;;;;53.75;26.63;;;-2.60;90.90;;;;;;6209811;23;20009;-60
2024/01/10 10:15:39;;;;;;;57.67;27.05;;;-2.50;91.00;;;;;;6210363;23;20004;-60
2024/01/10 10:18:26;;;;;;;49.03;23.58;;;-2.40;90.90;;;;;;6210624;23;20030;-60
2024/01/10 10:21:13;;;;;;;40.47;23.10;;;-2.40;90.90;;;;;;6211379;23;20342;-60
2024/01/10 10:24:03;;;;;;;47.58;24.10;;;-2.30;90.90;;;;;;6211293;23;20019;-60
2024/01/10 10:26:49;;;;;;;47.75;23.40;;;-2.30;90.80;;;;;;6211549;23;20008;-60
2024/01/10 10:29:39;;;;;;;48.28;23.15;;;-2.20;90.80;;;;;;6210836;23;20005;-60
2024/01/10 10:32:25;;;;;;;53.17;25.85;;;-2.10;90.80;;;;;;6205365;23;20020;-59
2024/01/10 10:35:11;;;;;;;51.28;22.88;;;-2.10;90.70;;;;;;6211487;23;20005;-62
2024/01/10 10:37:58;;;;;;;52.63;25.83;;;-2.00;90.70;;;;;;6210753;23;20004;-60
2024/01/10 10:40:44;;;;;;;43.90;24.05;;;-1.90;90.70;;;;;;6211608;23;20327;-60
2024/01/10 10:43:35;;;;;;;46.05;25.60;;;-1.80;90.70;;;;;;6208794;23;20318;-60
2024/01/10 10:46:26;;;;;;;55.33;26.00;;;-1.80;90.70;;;;;;6212099;23;20008;-60
2024/01/10 10:49:13;;;;;;;53.58;25.83;;;-1.70;90.70;;;;;;6211501;23;20055;-61
2024/01/10 10:52:01;;;;;;;51.75;27.63;;;-1.60;90.60;;;;;;6211091;23;20510;-60
2024/01/10 10:54:48;;;;;;;49.33;26.52;;;-1.50;90.60;;;;;;6209390;23;20005;-59
2024/01/10 10:57:34;;;;;;;45.00;24.90;;;-1.50;90.60;;;;;;6211880;23;20015;-60
2024/01/10 11:00:26;;;;;;;49.05;25.10;;;-1.40;90.60;;;;;;6209693;23;20502;-60
2024/01/10 11:03:13;;;;;;;48.22;25.77;;;-1.40;90.50;;;;;;6211643;23;20012;-60
2024/01/10 11:06:00;;;;;;;41.38;21.38;;;-1.30;90.50;;;;;;6212297;23;20483;-61
2024/01/10 11:09:10;;;;;;;36.65;21.42;;;-1.20;90.40;;;;;;6212557;23;20011;-61
2024/01/10 11:11:56;;;;;;;42.38;23.42;;;-1.20;90.30;;;;;;6212463;23;20011;-61
2024/01/10 11:15:02;;;;;;;39.35;20.48;;;-1.10;90.20;;;;;;6209878;23;20330;-61
2024/01/10 11:17:54;;;;;;;41.15;22.15;;;-1.00;90.10;;;;;;6210485;23;20059;-61
2024/01/10 11:21:10;;;;;;;39.95;22.63;;;-1.00;90.10;;;;;;6211034;23;20008;-61
2024/01/10 11:23:59;;;;;;;40.75;22.75;;;-0.90;90.00;;;;;;6210802;23;20016;-61
2024/01/10 11:26:45;;;;;;;45.88;23.08;;;-0.90;90.00;;;;;;6212452;23;20001;-60
2024/01/10 11:29:32;;;;;;;41.03;22.42;;;-0.80;90.00;;;;;;6189738;23;20349;-60
2024/01/10 11:32:25;;;;;;;39.97;21.60;;;-0.80;89.60;;;;;;6209335;23;20004;-60
2024/01/10 11:35:20;;;;;;;43.58;22.08;;;-0.80;89.50;;;;;;6212971;23;20463;-60
2024/01/10 11:38:11;;;;;;;39.10;21.10;;;-0.70;89.40;;;;;;6211406;23;20004;-61
2024/01/10 11:40:57;;;;;;;37.63;20.67;;;-0.70;89.30;;;;;;6212564;23;20005;-60
2024/01/10 11:43:43;;;;;;;38.35;21.70;;;-0.70;89.20;;;;;;6193589;23;20017;-59
2024/01/10 11:46:30;;;;;;;40.95;21.00;;;-0.70;88.70;;;;;;6209867;23;20433;-61
2024/01/10 11:49:17;;;;;;;41.45;20.80;;;-0.60;88.80;;;;;;6210373;23;20012;-61
2024/01/10 11:52:03;;;;;;;36.15;19.38;;;-0.60;88.30;;;;;;6223770;23;20060;-61
2024/01/10 11:54:50;;;;;;;33.53;17.75;;;-0.60;87.60;;;;;;6231665;23;20012;-60
2024/01/10 11:57:37;;;;;;;36.10;18.50;;;-0.50;87.90;;;;;;6215773;23;20005;-60
2024/01/10 12:00:25;;;;;;;33.13;17.20;;;-0.50;87.70;;;;;;6189689;23;20004;-59
2024/01/10 12:03:14;;;;;;;32.08;16.67;;;-0.50;87.50;;;;;;6191034;23;20020;-60
2024/01/10 12:06:00;;;;;;;28.25;15.65;;;-0.50;87.30;;;;;;6212718;23;20497;-60
2024/01/10 12:08:46;;;;;;;37.88;17.15;;;-0.40;87.40;;;;;;6209725;23;20012;-60
2024/01/10 12:11:32;;;;;;;32.60;16.80;;;-0.30;87.30;;;;;;6209826;23;20023;-60
2024/01/10 12:14:20;;;;;;;33.30;17.73;;;-0.20;87.10;;;;;;6206029;23;20390;-59
2024/01/10 12:17:07;;;;;;;31.10;15.77;;;-0.20;86.90;;;;;;6204066;23;20000;-60
2024/01/10 12:19:53;;;;;;;30.63;16.40;;;-0.10;86.80;;;;;;6209817;23;20081;-60
2024/01/10 12:22:39;;;;;;;30.85;17.15;;;-0.10;86.50;;;;;;6211351;23;20099;-60
2024/01/10 12:25:26;;;;;;;34.50;17.85;;;0.00;86.30;;;;;;6211600;23;20003;-57
2024/01/10 12:28:16;;;;;;;31.85;14.52;;;0.00;86.00;;;;;;6208948;23;20074;-60
2024/01/10 12:31:03;;;;;;;29.77;17.13;;;0.10;85.80;;;;;;6211874;23;20008;-60
2024/01/10 12:33:50;;;;;;;24.48;13.75;;;0.20;85.70;;;;;;6208092;23;20009;-59
2024/01/10 12:36:36;;;;;;;30.33;16.20;;;0.20;85.40;;;;;;6209640;23;20083;-60
2024/01/10 12:39:23;;;;;;;29.90;16.67;;;0.30;85.30;;;;;;6187289;23;20491;-61
2024/01/10 12:42:09;;;;;;;30.80;16.48;;;0.40;85.20;;;;;;6211053;23;19997;-60
2024/01/10 12:44:55;;;;;;;34.00;16.48;;;0.40;85.00;;;;;;6207522;23;20009;-60
2024/01/10 12:47:41;;;;;;;34.97;17.25;;;0.50;84.70;;;;;;6209365;23;20391;-61
2024/01/10 12:50:27;;;;;;;36.28;17.73;;;0.50;84.30;;;;;;6212220;23;20008;-60
2024/01/10 12:53:13;;;;;;;32.08;16.95;;;0.50;84.10;;;;;;6209177;23;20075;-56
2024/01/10 12:55:59;;;;;;;27.83;14.65;;;0.50;83.70;;;;;;6208437;23;20015;-59
2024/01/10 12:58:45;;;;;;;30.83;15.32;;;0.50;83.60;;;;;;6209384;23;20434;-61
2024/01/10 13:01:31;;;;;;;30.20;16.83;;;0.60;83.50;;;;;;6209545;23;20012;-59
2024/01/10 13:04:17;;;;;;;33.78;17.45;;;0.60;83.40;;;;;;6209406;23;20079;-60
2024/01/10 13:07:03;;;;;;;26.17;16.02;;;0.70;83.30;;;;;;6209995;23;20040;-60
2024/01/10 13:09:49;;;;;;;33.95;16.98;;;0.70;83.10;;;;;;6208841;23;20040;-59
2024/01/10 13:12:35;;;;;;;35.47;17.38;;;0.70;82.90;;;;;;6208534;23;20015;-60
2024/01/10 13:15:21;;;;;;;31.95;19.67;;;0.80;82.90;;;;;;6211013;23;20008;-60
2024/01/10 13:18:09;;;;;;;32.72;19.02;;;0.80;82.70;;;;;;6209176;23;20004;-60
2024/01/10 13:20:56;;;;;;;38.17;18.80;;;0.70;82.70;;;;;;6190309;23;20445;-60
2024/01/10 13:23:42;;;;;;;38.35;19.27;;;0.70;82.50;;;;;;6212530;23;20333;-59
2024/01/10 13:26:28;;;;;;;34.95;19.10;;;0.70;82.60;;;;;;6208564;23;20052;-59
2024/01/10 13:29:13;;;;;;;34.15;19.27;;;0.70;82.50;;;;;;6191615;23;20441;-60
2024/01/10 13:32:00;;;;;;;37.58;19.67;;;0.70;82.40;;;;;;6209150;23;20008;-60
2024/01/10 13:34:46;;;;;;;37.97;19.83;;;0.80;82.30;;;;;;6208329;23;20333;-60
2024/01/10 13:37:32;;;;;;;32.28;17.92;;;0.70;82.00;;;;;;6207804;23;20008;-60
2024/01/10 13:40:23;;;;;;;34.10;19.42;;;0.80;82.00;;;;;;6208397;23;20020;-59
2024/01/10 13:43:09;;;;;;;29.63;16.90;;;0.80;81.90;;;;;;6210145;23;20051;-60
2024/01/10 13:45:55;;;;;;;30.90;19.10;;;0.80;82.00;;;;;;6208860;23;20001;-60
2024/01/10 13:48:41;;;;;;;31.95;18.48;;;0.80;81.90;;;;;;6209813;23;20492;-60
2024/01/10 13:51:27;;;;;;;34.83;18.40;;;0.90;81.90;;;;;;6188870;23;20392;-61
2024/01/10 13:54:13;;;;;;;33.35;18.50;;;1.00;81.90;;;;;;6210640;23;20004;-60
2024/01/10 13:56:59;;;;;;;31.90;17.67;;;1.00;81.80;;;;;;6209288;23;20011;-60
2024/01/10 13:59:47;;;;;;;31.10;16.45;;;1.10;81.80;;;;;;6210458;23;20016;-59
2024/01/10 14:02:35;;;;;;;28.85;17.15;;;1.10;81.70;;;;;;6208695;23;20487;-60
2024/01/10 14:05:21;;;;;;;29.30;17.95;;;1.20;81.70;;;;;;6212231;23;20020;-72